Alma, New Mexico
Current Conditions -  °F | °C
As of 9:35 AM on Sunday 21 Dec 2014 (Local Time) from KSVC Reporting Station
Clear Clear  
Wind Chill:   Ceiling: Unl
Heat Index:   Visibility: 10mi
Dew Point: -2°   Wind: 13mph
Humidity: 50%   Direction: 310°NW
Pressure: 30.1"   Gusts: NA
Location:  33.3051°N, 108.67°W
Report Text: KSVC 211635Z AUTO 31011KT 10SM CLR 08/M02 A3010 RMK AO2
Loading
Personal Weather Stations






























Interactive Weather Map New forecast layout! Learn more

10-Day Weather Forecast

Advertisements
Track Severe Weather on mobile